Time;durP1;ratioP1;P1;durP2;ratioP2;P2;SDS_P1;SDS_P2;PMS_P1;PMS_P2;Temp;Humidity;BMP_temperature;BMP_pressure;BME280_temperature;BME280_humidity;BME280_pressure;Samples;Min_cycle;Max_cycle;Signal;HPM_P1;HPM_P2
2023/12/29 00:00:16;;;;;;;16.17;3.10;;;12.80;99.90;;;;;;7405319;19;20002;-79
2023/12/29 00:02:51;;;;;;;24.17;4.43;;;12.90;99.90;;;;;;7384344;19;20011;-78
2023/12/29 00:05:22;;;;;;;14.57;3.03;;;13.00;99.90;;;;;;7386108;19;20021;-79
2023/12/29 00:07:51;;;;;;;19.95;2.85;;;12.90;99.90;;;;;;7384237;19;20015;-79
2023/12/29 00:10:19;;;;;;;13.32;2.78;;;12.90;99.90;;;;;;7386611;19;20006;-78
2023/12/29 00:12:48;;;;;;;13.90;2.55;;;12.90;99.90;;;;;;7387698;19;20030;-80
2023/12/29 00:15:22;;;;;;;15.32;2.70;;;13.00;99.90;;;;;;7404833;19;20383;-79
2023/12/29 00:17:54;;;;;;;16.52;2.90;;;12.80;99.90;;;;;;7385087;19;20011;-79
2023/12/29 00:20:25;;;;;;;14.95;2.20;;;12.90;99.90;;;;;;7386351;19;20381;-79
2023/12/29 00:22:58;;;;;;;17.60;3.00;;;12.80;99.90;;;;;;7386608;19;20399;-79
2023/12/29 00:25:26;;;;;;;14.18;2.53;;;12.90;99.90;;;;;;7387150;19;20252;-79
2023/12/29 00:27:55;;;;;;;17.13;2.80;;;12.90;99.90;;;;;;7386898;19;20389;-79
2023/12/29 00:30:26;;;;;;;24.40;3.40;;;12.90;99.90;;;;;;7407075;19;20010;-79
2023/12/29 00:32:57;;;;;;;17.48;3.45;;;13.00;99.90;;;;;;7384429;19;20014;-79
2023/12/29 00:35:26;;;;;;;18.95;2.47;;;12.90;99.90;;;;;;7384880;19;20006;-78
2023/12/29 00:37:55;;;;;;;23.05;3.35;;;12.90;99.90;;;;;;7384233;19;20031;-79
2023/12/29 00:40:26;;;;;;;24.02;2.92;;;13.00;99.90;;;;;;7382422;19;20223;-79
2023/12/29 00:42:55;;;;;;;24.55;2.50;;;12.70;99.90;;;;;;7391147;19;20115;-79
2023/12/29 00:45:24;;;;;;;17.08;2.58;;;12.70;99.90;;;;;;7424274;19;20007;-80
2023/12/29 00:47:53;;;;;;;26.45;3.00;;;12.80;99.90;;;;;;7399750;19;20027;-79
2023/12/29 00:50:24;;;;;;;15.43;3.10;;;12.90;99.90;;;;;;7398248;19;20471;-79
2023/12/29 00:52:53;;;;;;;11.85;2.25;;;13.00;99.90;;;;;;7398498;19;20399;-78
2023/12/29 00:55:22;;;;;;;23.23;3.50;;;12.90;99.90;;;;;;7382208;19;20007;-78
2023/12/29 00:57:51;;;;;;;22.80;3.72;;;13.10;99.90;;;;;;7403625;19;20353;-80
2023/12/29 01:00:20;;;;;;;17.88;3.30;;;13.20;99.90;;;;;;7383110;19;20030;-79
2023/12/29 01:02:49;;;;;;;17.52;3.20;;;13.10;99.90;;;;;;7383309;19;20007;-78
2023/12/29 01:05:19;;;;;;;27.60;3.03;;;13.20;99.90;;;;;;7385174;19;20003;-78
2023/12/29 01:07:50;;;;;;;23.95;2.85;;;13.10;99.90;;;;;;7382649;19;20038;-78
2023/12/29 01:10:19;;;;;;;18.92;2.50;;;13.10;99.90;;;;;;7387779;19;20054;-78
2023/12/29 01:12:49;;;;;;;22.30;3.55;;;13.00;99.90;;;;;;7402139;19;20264;-79
2023/12/29 01:15:18;;;;;;;18.30;2.72;;;13.10;99.90;;;;;;7381934;19;20027;-80
2023/12/29 01:17:46;;;;;;;13.90;1.92;;;13.20;99.90;;;;;;7382505;19;20003;-78
2023/12/29 01:20:15;;;;;;;28.58;3.08;;;13.20;99.90;;;;;;7380156;19;20007;-78
2023/12/29 01:22:44;;;;;;;17.98;2.53;;;13.20;99.90;;;;;;7380391;19;20155;-80
2023/12/29 01:25:16;;;;;;;16.83;3.15;;;13.20;99.90;;;;;;7380595;19;20018;-78
2023/12/29 01:27:44;;;;;;;;;;;13.30;99.90;;;;;;7401989;19;20007;-77
2023/12/29 01:30:13;;;;;;;17.30;2.63;;;13.30;99.90;;;;;;7384738;19;19910;-78
2023/12/29 01:32:42;;;;;;;26.80;3.13;;;13.00;99.90;;;;;;7380997;19;20406;-78
2023/12/29 01:35:11;;;;;;;18.50;2.97;;;13.10;99.90;;;;;;7383117;19;20010;-77
2023/12/29 01:37:40;;;;;;;20.45;2.95;;;13.10;99.90;;;;;;7380961;19;20002;-79
2023/12/29 01:40:10;;;;;;;9.77;2.60;;;13.00;99.90;;;;;;7380703;19;20010;-79
2023/12/29 01:42:41;;;;;;;18.25;2.88;;;13.20;99.90;;;;;;7401028;19;20032;-79
2023/12/29 01:45:23;;;;;;;13.38;2.58;;;13.30;99.90;;;;;;7379471;19;20014;-77
2023/12/29 01:47:53;;;;;;;16.98;3.00;;;13.20;99.90;;;;;;7381999;19;20007;-79
2023/12/29 01:50:23;;;;;;;14.35;2.35;;;13.20;99.90;;;;;;7380247;19;20027;-78
2023/12/29 01:52:53;;;;;;;26.20;2.55;;;13.00;99.90;;;;;;7380693;19;20016;-78
2023/12/29 01:55:23;;;;;;;20.30;2.60;;;13.20;99.90;;;;;;7381652;19;20018;-78
2023/12/29 01:57:55;;;;;;;23.52;3.17;;;13.20;99.90;;;;;;7402543;19;20029;-77
2023/12/29 02:00:24;;;;;;;27.02;2.83;;;13.20;99.90;;;;;;7384373;19;20010;-78
2023/12/29 02:02:53;;;;;;;23.58;2.70;;;13.10;99.90;;;;;;7380977;19;20024;-79
2023/12/29 02:05:24;;;;;;;21.40;2.90;;;13.10;99.90;;;;;;7380340;19;20003;-78
2023/12/29 02:07:55;;;;;;;19.23;2.38;;;13.20;99.90;;;;;;7380811;19;20011;-78
2023/12/29 02:10:24;;;;;;;23.88;3.28;;;13.20;99.90;;;;;;7382937;19;20082;-78
2023/12/29 02:13:00;;;;;;;25.92;2.58;;;13.30;99.90;;;;;;7400648;19;20007;-78
2023/12/29 02:15:29;;;;;;;17.77;2.88;;;13.00;99.90;;;;;;7381427;19;20003;-78
2023/12/29 02:18:04;;;;;;;24.42;3.58;;;13.10;99.90;;;;;;7384967;19;20031;-79
2023/12/29 02:20:33;;;;;;;20.35;2.25;;;13.10;99.90;;;;;;7381080;19;20006;-79
2023/12/29 02:23:01;;;;;;;24.38;2.78;;;13.00;99.90;;;;;;7380926;19;20349;-79
2023/12/29 02:25:34;;;;;;;32.20;2.90;;;13.00;99.90;;;;;;7379259;19;20031;-78
2023/12/29 02:28:11;;;;;;;17.83;2.60;;;13.10;99.90;;;;;;7382712;19;20032;-80
2023/12/29 02:30:48;;;;;;;16.80;2.28;;;12.80;99.90;;;;;;7405003;19;20027;-80
2023/12/29 02:33:22;;;;;;;17.65;2.38;;;13.10;99.90;;;;;;7387070;19;20398;-79
2023/12/29 02:35:58;;;;;;;13.40;2.72;;;12.90;99.90;;;;;;7387117;19;20006;-80
2023/12/29 02:38:28;;;;;;;22.10;2.55;;;13.20;99.90;;;;;;7388353;19;20370;-80
2023/12/29 02:41:02;;;;;;;15.55;2.63;;;13.30;99.90;;;;;;7388379;19;20101;-80
2023/12/29 02:43:32;;;;;;;20.90;2.83;;;13.20;99.90;;;;;;7386819;19;20003;-79
2023/12/29 02:46:00;;;;;;;24.40;3.00;;;13.30;99.90;;;;;;7407758;19;20019;-79
2023/12/29 02:48:29;;;;;;;22.65;2.42;;;13.40;99.90;;;;;;7409183;19;20019;-80
2023/12/29 02:50:58;;;;;;;35.88;3.10;;;13.30;99.90;;;;;;7399325;19;20002;-79
2023/12/29 02:53:28;;;;;;;21.05;3.03;;;13.20;99.90;;;;;;7403369;19;20006;-78
2023/12/29 02:56:08;;;;;;;30.30;3.55;;;13.20;99.90;;;;;;7404464;19;20014;-80
2023/12/29 02:58:37;;;;;;;15.93;2.83;;;13.10;99.90;;;;;;7403617;19;20023;-78
2023/12/29 03:01:06;;;;;;;23.73;2.75;;;13.10;99.90;;;;;;7400278;19;20011;-81
2023/12/29 03:03:35;;;;;;;28.90;2.95;;;13.30;99.90;;;;;;7405750;19;20007;-80
2023/12/29 03:06:03;;;;;;;27.92;2.83;;;13.00;99.90;;;;;;7386489;19;20028;-79
2023/12/29 03:08:32;;;;;;;23.17;2.55;;;12.80;99.90;;;;;;7385277;19;20077;-80
2023/12/29 03:11:05;;;;;;;28.88;3.33;;;12.80;99.90;;;;;;7387146;19;20288;-79
2023/12/29 03:13:33;;;;;;;20.10;2.53;;;12.90;99.90;;;;;;7386045;19;20014;-79
2023/12/29 03:16:03;;;;;;;23.10;2.65;;;13.10;99.90;;;;;;7405447;19;20369;-79
2023/12/29 03:18:32;;;;;;;19.38;3.25;;;13.10;99.90;;;;;;7410791;19;20006;-79
2023/12/29 03:21:01;;;;;;;17.65;2.40;;;13.10;99.90;;;;;;7385813;19;20003;-80
2023/12/29 03:23:31;;;;;;;24.05;2.90;;;13.10;99.90;;;;;;7385759;19;20007;-80
2023/12/29 03:25:59;;;;;;;18.30;2.75;;;13.10;99.90;;;;;;7387447;19;20357;-80
2023/12/29 03:28:31;;;;;;;19.73;2.65;;;13.00;99.90;;;;;;7384562;19;20031;-80
2023/12/29 03:31:02;;;;;;;19.67;2.70;;;13.10;99.90;;;;;;7409185;19;20002;-79
2023/12/29 03:33:31;;;;;;;19.98;2.90;;;13.10;99.90;;;;;;7385827;19;20003;-78
2023/12/29 03:36:00;;;;;;;17.75;2.63;;;13.10;99.90;;;;;;7385180;19;20300;-80
2023/12/29 03:38:28;;;;;;;23.70;2.70;;;13.00;99.90;;;;;;7386025;19;20010;-79
2023/12/29 03:40:57;;;;;;;17.65;2.83;;;13.10;99.90;;;;;;7386558;19;20023;-79
2023/12/29 03:43:26;;;;;;;16.52;3.08;;;13.20;99.90;;;;;;7383439;19;20362;-79
2023/12/29 03:45:59;;;;;;;30.20;2.35;;;13.20;99.90;;;;;;7406161;19;20031;-77
2023/12/29 03:48:27;;;;;;;17.63;2.17;;;13.10;99.90;;;;;;7387353;19;20022;-78
2023/12/29 03:50:56;;;;;;;29.83;2.67;;;13.10;99.90;;;;;;7387965;19;20042;-78
2023/12/29 03:53:25;;;;;;;20.90;2.30;;;13.20;99.90;;;;;;7388275;19;20003;-78
2023/12/29 03:55:53;;;;;;;26.33;3.03;;;13.10;99.90;;;;;;7386801;19;20385;-78
2023/12/29 03:58:22;;;;;;;25.48;3.17;;;13.00;99.90;;;;;;7384471;19;20010;-78
2023/12/29 04:01:02;;;;;;;14.07;2.10;;;13.00;99.90;;;;;;7408360;19;20230;-80
2023/12/29 04:03:32;;;;;;;14.60;2.75;;;13.10;99.90;;;;;;7389133;19;20015;-80
2023/12/29 04:06:01;;;;;;;17.02;2.33;;;13.10;99.90;;;;;;7387922;19;20041;-80
2023/12/29 04:08:29;;;;;;;12.50;2.20;;;13.10;99.90;;;;;;7387305;19;20024;-80
2023/12/29 04:10:58;;;;;;;20.23;2.42;;;13.00;99.90;;;;;;7385807;19;20010;-78
2023/12/29 04:13:27;;;;;;;19.45;2.53;;;13.10;99.90;;;;;;7385156;19;20029;-79
2023/12/29 04:15:58;;;;;;;22.20;2.70;;;12.70;99.90;;;;;;7408613;19;20003;-79
2023/12/29 04:18:28;;;;;;;14.20;2.50;;;12.80;99.90;;;;;;7385704;19;20230;-80
2023/12/29 04:20:57;;;;;;;25.80;2.85;;;12.90;99.90;;;;;;7384579;19;20007;-80
2023/12/29 04:23:25;;;;;;;24.77;2.78;;;12.80;99.90;;;;;;7384297;19;20286;-80
2023/12/29 04:25:56;;;;;;;32.65;3.00;;;12.90;99.90;;;;;;7383535;19;20031;-79
2023/12/29 04:28:29;;;;;;;18.95;2.92;;;13.10;99.90;;;;;;7383299;19;20098;-80
2023/12/29 04:31:01;;;;;;;17.02;2.33;;;12.90;99.90;;;;;;7406397;19;20035;-80
2023/12/29 04:33:29;;;;;;;36.08;2.78;;;12.80;99.90;;;;;;7383927;19;20019;-80
2023/12/29 04:35:58;;;;;;;12.88;2.33;;;13.00;99.90;;;;;;7383501;19;20006;-81
2023/12/29 04:38:27;;;;;;;23.65;3.25;;;12.70;99.90;;;;;;7383387;19;20002;-80
2023/12/29 04:40:55;;;;;;;25.38;2.42;;;12.90;99.90;;;;;;7383292;19;20011;-80
2023/12/29 04:43:24;;;;;;;17.55;2.58;;;13.00;99.90;;;;;;7386080;19;20279;-79
2023/12/29 04:45:53;;;;;;;18.05;2.28;;;13.10;99.90;;;;;;7406777;19;20003;-79
2023/12/29 04:48:25;;;;;;;18.65;2.38;;;13.00;99.90;;;;;;7387800;19;20007;-81
2023/12/29 04:50:56;;;;;;;22.10;2.38;;;13.00;99.90;;;;;;7385113;19;20023;-81
2023/12/29 04:53:25;;;;;;;18.77;3.22;;;12.90;99.90;;;;;;7385609;19;20003;-79
2023/12/29 04:55:53;;;;;;;17.58;2.65;;;13.10;99.90;;;;;;7384230;19;20007;-80
2023/12/29 04:58:22;;;;;;;15.30;2.03;;;13.10;99.90;;;;;;7385191;19;20042;-80
2023/12/29 05:00:51;;;;;;;15.30;2.47;;;13.00;99.90;;;;;;7420757;19;20019;-80
2023/12/29 05:03:20;;;;;;;15.50;2.33;;;12.90;99.90;;;;;;7396875;19;20011;-79
2023/12/29 05:05:51;;;;;;;17.88;3.03;;;12.80;99.90;;;;;;7396129;19;20026;-79
2023/12/29 05:08:20;;;;;;;13.50;2.40;;;13.00;99.90;;;;;;7394496;19;20011;-79
2023/12/29 05:10:48;;;;;;;25.35;2.88;;;13.20;99.90;;;;;;7386219;19;20021;-79
2023/12/29 05:13:18;;;;;;;25.67;2.78;;;13.10;99.90;;;;;;7382054;19;20011;-80
2023/12/29 05:15:47;;;;;;;22.45;2.15;;;13.20;99.90;;;;;;7404397;19;20031;-79
2023/12/29 05:18:18;;;;;;;19.13;2.63;;;13.20;99.90;;;;;;7381928;19;20144;-79
2023/12/29 05:20:46;;;;;;;22.38;2.83;;;13.30;99.90;;;;;;7382640;19;20007;-80
2023/12/29 05:23:18;;;;;;;19.67;2.33;;;13.20;99.90;;;;;;7383072;19;20011;-80
2023/12/29 05:25:46;;;;;;;;;;;13.20;99.90;;;;;;7382085;19;20271;-78
2023/12/29 05:28:15;;;;;;;23.75;2.60;;;13.00;99.90;;;;;;7381115;19;19917;-79
2023/12/29 05:30:44;;;;;;;23.17;3.08;;;13.20;99.90;;;;;;7404793;19;20003;-80
2023/12/29 05:33:13;;;;;;;19.25;2.17;;;13.10;99.90;;;;;;7382590;19;20007;-80
2023/12/29 05:35:41;;;;;;;16.40;2.30;;;13.00;99.90;;;;;;7380746;19;20077;-80
2023/12/29 05:38:10;;;;;;;21.30;2.53;;;12.90;99.90;;;;;;7380286;19;20288;-80
2023/12/29 05:40:42;;;;;;;20.95;3.50;;;12.90;99.90;;;;;;7382588;19;20028;-79
2023/12/29 05:43:13;;;;;;;24.45;3.15;;;12.90;99.90;;;;;;7382481;19;20022;-79
2023/12/29 05:45:43;;;;;;;29.75;2.78;;;12.90;99.90;;;;;;7406047;19;20010;-80
2023/12/29 05:48:12;;;;;;;30.60;3.35;;;12.90;99.90;;;;;;7381441;19;19999;-79
2023/12/29 05:50:41;;;;;;;18.23;2.38;;;12.80;99.90;;;;;;7383582;19;20035;-80
2023/12/29 05:53:11;;;;;;;19.48;2.80;;;13.00;99.90;;;;;;7382524;19;20031;-79
2023/12/29 05:55:43;;;;;;;23.75;2.88;;;13.00;99.90;;;;;;7382249;19;20011;-80
2023/12/29 05:58:11;;;;;;;;;;;13.00;99.90;;;;;;7394910;19;20006;-80
2023/12/29 06:00:41;;;;;;;26.38;2.22;;;12.80;99.90;;;;;;7403305;19;19940;-80
2023/12/29 06:03:09;;;;;;;24.25;2.90;;;13.00;99.90;;;;;;7381295;19;20023;-79
2023/12/29 06:05:39;;;;;;;22.77;2.90;;;13.00;99.90;;;;;;7380249;19;20268;-80
2023/12/29 06:08:08;;;;;;;24.35;2.55;;;13.10;99.90;;;;;;7386779;19;20369;-79
2023/12/29 06:10:39;;;;;;;18.42;2.55;;;13.20;99.90;;;;;;7386325;19;20002;-79
2023/12/29 06:13:10;;;;;;;14.35;2.08;;;13.10;99.90;;;;;;7408399;19;20003;-80
2023/12/29 06:15:39;;;;;;;18.98;3.38;;;13.10;99.90;;;;;;7391658;19;20256;-79
2023/12/29 06:18:08;;;;;;;21.58;2.28;;;13.20;99.90;;;;;;7387949;19;20010;-79
2023/12/29 06:20:37;;;;;;;24.27;2.80;;;12.90;99.90;;;;;;7388581;19;20011;-78
2023/12/29 06:23:06;;;;;;;15.40;2.60;;;12.90;99.90;;;;;;7388406;19;20003;-79
2023/12/29 06:25:35;;;;;;;15.52;2.38;;;13.00;99.90;;;;;;7390388;19;20095;-79
2023/12/29 06:28:06;;;;;;;11.98;2.05;;;13.10;99.90;;;;;;7407392;19;20006;-79
2023/12/29 06:30:37;;;;;;;22.42;2.65;;;12.70;99.90;;;;;;7389307;19;20215;-79
2023/12/29 06:33:07;;;;;;;19.58;3.15;;;13.00;99.90;;;;;;7388024;19;20035;-78
2023/12/29 06:35:38;;;;;;;19.73;2.35;;;13.00;99.90;;;;;;7390460;19;20249;-80
2023/12/29 06:38:07;;;;;;;23.73;2.40;;;13.00;99.90;;;;;;7392373;19;20027;-78
2023/12/29 06:40:36;;;;;;;22.40;2.22;;;12.90;99.90;;;;;;7390277;19;20022;-79
2023/12/29 06:43:05;;;;;;;20.35;2.40;;;13.10;99.90;;;;;;7410275;19;20017;-81
2023/12/29 06:45:36;;;;;;;7.35;2.00;;;13.20;99.90;;;;;;7386884;19;20006;-80
2023/12/29 06:48:05;;;;;;;;;;;13.20;99.90;;;;;;7388289;19;20010;-80
2023/12/29 06:50:34;;;;;;;13.43;2.20;;;13.30;99.90;;;;;;7388057;19;19936;-80
2023/12/29 06:53:05;;;;;;;20.17;2.67;;;13.20;99.90;;;;;;7387111;19;20383;-79
2023/12/29 06:55:34;;;;;;;22.88;2.95;;;13.10;99.90;;;;;;7389071;19;20038;-79
2023/12/29 06:58:03;;;;;;;16.98;2.70;;;13.20;99.90;;;;;;7410512;19;20011;-80
2023/12/29 07:00:33;;;;;;;19.45;2.30;;;13.30;99.90;;;;;;7386914;19;20006;-79
2023/12/29 07:03:05;;;;;;;17.63;2.63;;;13.30;99.90;;;;;;7387273;19;19998;-80
2023/12/29 07:05:39;;;;;;;16.02;2.03;;;13.30;99.90;;;;;;7387054;19;20263;-81
2023/12/29 07:08:08;;;;;;;18.63;2.20;;;13.10;99.90;;;;;;7388235;19;20014;-80
2023/12/29 07:10:37;;;;;;;14.27;2.50;;;13.10;99.90;;;;;;7399842;19;20031;-79
2023/12/29 07:13:06;;;;;;;20.13;2.63;;;12.80;99.90;;;;;;7422246;19;20011;-80
2023/12/29 07:15:36;;;;;;;21.98;2.70;;;13.00;99.90;;;;;;7404660;19;20007;-79
2023/12/29 07:18:08;;;;;;;17.08;2.40;;;13.00;99.90;;;;;;7401157;19;20007;-79
2023/12/29 07:20:37;;;;;;;17.77;2.33;;;12.60;99.90;;;;;;7397385;19;20003;-79
2023/12/29 07:23:11;;;;;;;12.52;2.25;;;12.60;99.90;;;;;;7386134;19;20007;-79
2023/12/29 07:25:47;;;;;;;19.58;2.83;;;12.70;99.90;;;;;;7389410;19;20018;-80
2023/12/29 07:28:18;;;;;;;10.82;1.88;;;13.00;99.90;;;;;;7410709;19;20006;-79
2023/12/29 07:30:47;;;;;;;18.15;2.15;;;13.00;99.90;;;;;;7389000;19;20338;-80
2023/12/29 07:33:18;;;;;;;20.50;2.17;;;12.80;99.90;;;;;;7391916;19;20010;-81
2023/12/29 07:35:47;;;;;;;;;;;12.80;99.90;;;;;;7389387;19;20007;-80
2023/12/29 07:38:16;;;;;;;13.68;2.50;;;13.00;99.90;;;;;;7388244;19;20235;-85
2023/12/29 07:40:48;;;;;;;16.48;2.75;;;13.00;99.90;;;;;;7384789;19;20002;-81
2023/12/29 07:43:17;;;;;;;25.90;2.42;;;12.80;99.90;;;;;;7404374;19;20106;-80
2023/12/29 07:45:47;;;;;;;19.67;2.85;;;12.80;99.90;;;;;;7409885;19;20014;-79
2023/12/29 07:48:24;;;;;;;17.83;2.42;;;13.00;99.90;;;;;;7390045;19;20011;-81
2023/12/29 07:50:53;;;;;;;20.40;2.45;;;12.90;99.90;;;;;;7391166;19;20018;-80
2023/12/29 07:53:42;;;;;;;14.50;1.95;;;13.00;99.90;;;;;;7390966;19;20017;-81
2023/12/29 07:56:37;;;;;;;16.20;2.15;;;13.00;99.90;;;;;;7392191;19;20354;-82
2023/12/29 07:59:14;;;;;;;19.15;2.60;;;12.80;99.90;;;;;;7384665;19;20023;-81
2023/12/29 08:01:43;;;;;;;21.75;2.35;;;13.00;99.90;;;;;;7384288;19;20067;-79
2023/12/29 08:04:14;;;;;;;10.43;1.75;;;13.10;99.90;;;;;;7406091;19;20028;-80
2023/12/29 08:06:52;;;;;;;15.57;2.13;;;13.10;99.90;;;;;;7383364;19;20062;-79
2023/12/29 08:09:21;;;;;;;19.83;2.33;;;12.90;99.90;;;;;;7384414;19;20023;-79
2023/12/29 08:11:50;;;;;;;17.90;2.50;;;12.80;99.90;;;;;;7384746;19;20014;-79
2023/12/29 08:14:19;;;;;;;13.45;1.67;;;12.80;99.90;;;;;;7387545;19;20026;-82
2023/12/29 08:16:47;;;;;;;12.82;2.28;;;12.90;99.90;;;;;;7385686;19;20025;-80
2023/12/29 08:19:19;;;;;;;12.27;2.13;;;12.50;99.90;;;;;;7403724;19;20031;-82
2023/12/29 08:21:48;;;;;;;17.77;1.95;;;12.50;99.90;;;;;;7384065;19;20032;-79
2023/12/29 08:24:16;;;;;;;12.25;1.73;;;12.80;99.90;;;;;;7386696;19;20069;-80
2023/12/29 08:26:48;;;;;;;12.50;2.10;;;13.00;99.90;;;;;;7384713;19;20103;-77
2023/12/29 08:29:18;;;;;;;;;;;13.00;99.90;;;;;;7384378;19;20064;-80
2023/12/29 08:31:47;;;;;;;14.65;3.83;;;13.20;99.90;;;;;;7383355;19;19911;-79
2023/12/29 08:34:20;;;;;;;18.15;3.50;;;13.30;99.90;;;;;;7410056;19;20389;-81
2023/12/29 08:36:51;;;;;;;21.20;4.65;;;13.10;99.90;;;;;;7384306;19;20066;-80
2023/12/29 08:39:36;;;;;;;8.35;2.63;;;12.90;99.90;;;;;;7384746;19;20026;-84
2023/12/29 08:42:06;;;;;;;17.85;2.50;;;12.70;99.90;;;;;;7386138;19;20005;-78
2023/12/29 08:47:41;;;;;;;28.70;3.35;;;12.70;99.90;;;;;;7384056;19;20032;-81
2023/12/29 08:50:33;;;;;;;14.32;2.45;;;12.70;99.90;;;;;;7404401;19;20279;-82
2023/12/29 08:53:05;;;;;;;15.27;2.30;;;12.50;99.90;;;;;;7382492;19;20007;-77
2023/12/29 08:55:33;;;;;;;11.20;2.97;;;12.60;99.90;;;;;;7380489;19;20020;-77
2023/12/29 08:58:02;;;;;;;12.77;2.20;;;12.90;99.90;;;;;;7406152;19;20014;-78
2023/12/29 09:00:31;;;;;;;11.88;1.95;;;13.00;99.90;;;;;;7380374;19;20528;-78
2023/12/29 09:03:00;;;;;;;20.73;3.03;;;13.10;99.90;;;;;;7382525;19;20006;-78
2023/12/29 09:05:33;;;;;;;11.93;2.58;;;12.70;99.90;;;;;;7381458;19;20027;-79
2023/12/29 09:08:02;;;;;;;11.73;1.95;;;13.00;99.90;;;;;;7381626;19;20007;-79
2023/12/29 09:10:30;;;;;;;20.33;2.35;;;13.10;99.90;;;;;;7383994;19;20002;-81
2023/12/29 09:13:02;;;;;;;21.27;2.45;;;13.30;99.90;;;;;;7404260;19;20023;-82
2023/12/29 09:15:33;;;;;;;13.05;2.53;;;13.40;99.90;;;;;;7391200;19;20006;-81
2023/12/29 09:18:03;;;;;;;12.82;2.22;;;13.40;99.90;;;;;;7382004;19;20101;-76
2023/12/29 09:20:39;;;;;;;18.77;2.33;;;13.50;99.90;;;;;;7382979;19;19999;-79
2023/12/29 09:23:08;;;;;;;15.35;2.00;;;13.60;99.90;;;;;;7388345;19;20027;-78
2023/12/29 09:25:37;;;;;;;10.75;1.73;;;13.50;99.90;;;;;;7395880;19;20009;-78
2023/12/29 09:28:06;;;;;;;13.57;2.40;;;13.40;99.90;;;;;;7419162;19;20014;-77
2023/12/29 09:30:35;;;;;;;11.00;2.33;;;13.40;99.90;;;;;;7401579;19;20092;-78
2023/12/29 09:33:14;;;;;;;10.45;2.38;;;13.30;99.90;;;;;;7400484;19;20010;-83
2023/12/29 09:35:59;;;;;;;23.02;3.03;;;13.30;99.90;;;;;;7393659;19;20088;-83
2023/12/29 09:38:27;;;;;;;18.60;2.58;;;13.20;99.90;;;;;;7381116;19;20010;-79
2023/12/29 09:41:10;;;;;;;20.75;5.10;;;13.30;99.90;;;;;;7379872;19;20216;-78
2023/12/29 09:47:06;;;;;;;21.48;2.55;;;13.60;99.90;;;;;;7382146;19;20070;-79
2023/12/29 09:49:46;;;;;;;13.80;2.38;;;13.40;99.90;;;;;;7385530;19;20232;-79
2023/12/29 09:52:19;;;;;;;15.05;2.05;;;13.40;99.90;;;;;;7402901;19;20015;-79
2023/12/29 09:54:48;;;;;;;22.23;2.58;;;13.50;99.90;;;;;;7380311;19;20124;-79
2023/12/29 09:57:18;;;;;;;22.60;2.65;;;13.50;99.90;;;;;;7379527;19;20002;-78
2023/12/29 09:59:47;;;;;;;20.25;2.75;;;13.60;99.90;;;;;;7379170;19;20011;-78
2023/12/29 10:02:18;;;;;;;13.55;2.00;;;13.50;99.90;;;;;;7381256;19;20006;-80
2023/12/29 10:04:47;;;;;;;22.33;3.08;;;13.50;99.90;;;;;;7378465;19;20007;-77
2023/12/29 10:07:25;;;;;;;15.25;2.65;;;13.60;99.90;;;;;;7399632;19;20039;-80
2023/12/29 10:09:59;;;;;;;15.18;2.67;;;13.50;99.90;;;;;;7379966;19;20003;-78
2023/12/29 10:12:30;;;;;;;20.52;2.88;;;13.60;99.90;;;;;;7380684;19;20054;-78
2023/12/29 10:15:10;;;;;;;18.77;2.17;;;13.50;99.90;;;;;;7381473;19;20027;-78
2023/12/29 10:17:46;;;;;;;19.98;2.67;;;13.50;99.90;;;;;;7381045;19;20075;-78
2023/12/29 10:20:40;;;;;;;22.10;2.55;;;13.60;99.90;;;;;;7378916;19;20394;-76
2023/12/29 10:23:16;;;;;;;10.73;1.80;;;13.70;99.90;;;;;;7382358;19;20003;-77
2023/12/29 10:25:46;;;;;;;20.17;2.65;;;13.70;99.90;;;;;;7380877;19;20028;-79
2023/12/29 10:28:17;;;;;;;21.95;3.25;;;13.70;99.90;;;;;;7405485;19;20014;-79
2023/12/29 10:30:46;;;;;;;26.33;2.50;;;13.60;99.90;;;;;;7384665;19;20014;-78
2023/12/29 10:33:22;;;;;;;16.65;2.38;;;13.40;99.90;;;;;;7384633;19;20275;-79
2023/12/29 10:36:03;;;;;;;10.82;2.65;;;13.50;99.90;;;;;;7382715;19;20007;-79
2023/12/29 10:38:44;;;;;;;;;;;;;;;;;;;;;
2023/12/29 10:41:13;;;;;;;;;;;13.50;99.90;;;;;;7386977;19;20275;-78
2023/12/29 10:43:43;;;;;;;15.02;2.42;;;13.50;99.90;;;;;;7382191;19;19950;-79
2023/12/29 10:46:13;;;;;;;14.05;1.83;;;13.50;99.90;;;;;;7403358;19;20024;-78
2023/12/29 10:48:42;;;;;;;19.50;2.75;;;13.50;99.90;;;;;;7381719;19;20007;-77
2023/12/29 10:51:13;;;;;;;20.80;2.78;;;13.60;99.90;;;;;;7381151;19;20272;-78
2023/12/29 10:53:44;;;;;;;14.65;2.30;;;13.40;99.90;;;;;;7385161;19;20007;-78
2023/12/29 10:56:22;;;;;;;11.65;2.08;;;13.60;99.90;;;;;;7390503;19;20007;-79
2023/12/29 10:59:02;;;;;;;13.90;1.95;;;13.40;99.90;;;;;;7391568;19;20015;-78
2023/12/29 11:04:50;;;;;;;27.08;3.00;;;13.80;99.90;;;;;;7283215;19;2004456;-81
2023/12/29 11:07:35;;;;;;;17.27;2.75;;;13.70;99.90;;;;;;7412725;19;20090;-79
2023/12/29 11:10:09;;;;;;;17.02;2.03;;;13.80;99.90;;;;;;7391221;19;20015;-80
2023/12/29 11:12:39;;;;;;;18.25;2.63;;;13.90;99.90;;;;;;7396733;19;20030;-80
2023/12/29 11:15:10;;;;;;;20.35;2.33;;;13.80;99.90;;;;;;7396683;19;20023;-78
2023/12/29 11:17:39;;;;;;;16.95;2.40;;;13.50;99.90;;;;;;7394627;19;20036;-78
2023/12/29 11:20:16;;;;;;;12.85;2.05;;;13.50;99.90;;;;;;7390327;19;20014;-78
2023/12/29 11:22:48;;;;;;;13.90;2.33;;;13.70;99.90;;;;;;7386118;19;20407;-79
2023/12/29 11:25:19;;;;;;;19.00;2.60;;;13.60;99.90;;;;;;7404904;19;20095;-77
2023/12/29 11:27:48;;;;;;;;;;;13.40;99.90;;;;;;7385775;19;20020;-77
2023/12/29 11:30:17;;;;;;;11.57;2.45;;;13.60;99.90;;;;;;7388071;19;19924;-76
2023/12/29 11:32:52;;;;;;;16.13;2.10;;;13.80;99.90;;;;;;7385502;19;20122;-76
2023/12/29 11:35:26;;;;;;;17.20;2.10;;;13.80;99.90;;;;;;7385576;19;20021;-75
2023/12/29 11:38:16;;;;;;;9.00;1.58;;;13.80;99.90;;;;;;7384075;19;20423;-79
2023/12/29 11:40:53;;;;;;;15.70;2.25;;;13.90;99.90;;;;;;7385502;19;20015;-74
2023/12/29 11:43:22;;;;;;;20.92;2.25;;;13.90;99.90;;;;;;7414899;19;20027;-77
2023/12/29 11:45:53;;;;;;;16.23;2.25;;;13.90;99.90;;;;;;7399045;19;20003;-79
2023/12/29 11:48:51;;;;;;;11.57;1.83;;;13.90;99.90;;;;;;7398912;19;20014;-79
2023/12/29 11:51:34;;;;;;;14.90;2.70;;;14.00;99.90;;;;;;7395827;19;20023;-79
2023/12/29 11:54:04;;;;;;;12.63;2.25;;;14.10;99.90;;;;;;7385716;19;20011;-79
2023/12/29 11:56:46;;;;;;;14.55;2.20;;;13.80;99.90;;;;;;7386615;19;20003;-78
2023/12/29 11:59:19;;;;;;;14.10;2.38;;;13.80;99.90;;;;;;7386961;19;20075;-80
2023/12/29 12:01:50;;;;;;;17.42;2.83;;;13.70;99.90;;;;;;7384894;19;20366;-78
2023/12/29 12:04:54;;;;;;;;;;;;;;;;;;;;;
2023/12/29 12:08:00;;;;;;;16.58;2.70;;;13.40;99.90;;;;;;7383494;19;20877;-79
2023/12/29 12:16:58;;;;;;;12.40;2.42;;;13.80;99.90;;;;;;7283378;19;2004517;-81
2023/12/29 12:19:35;;;;;;;10.82;2.33;;;14.00;99.90;;;;;;7409124;19;20010;-82
2023/12/29 12:22:08;;;;;;;14.63;2.65;;;14.00;99.90;;;;;;7390122;19;20014;-83
2023/12/29 12:24:41;;;;;;;19.13;3.40;;;14.00;99.90;;;;;;7388229;19;20002;-80
2023/12/29 12:27:14;;;;;;;17.42;3.28;;;14.10;99.90;;;;;;7389188;19;20014;-82
2023/12/29 12:29:50;;;;;;;27.55;5.57;;;14.00;99.90;;;;;;7388741;19;20014;-83
2023/12/29 12:32:30;;;;;;;12.73;3.05;;;14.10;99.90;;;;;;7391269;19;20033;-82
2023/12/29 12:35:00;;;;;;;18.52;4.93;;;14.00;99.90;;;;;;7391095;19;20011;-82
2023/12/29 12:37:32;;;;;;;12.40;2.78;;;13.80;99.90;;;;;;7409302;19;20003;-82
2023/12/29 12:40:03;;;;;;;16.20;3.72;;;13.90;99.90;;;;;;7387547;19;20010;-85
2023/12/29 12:42:33;;;;;;;15.85;3.97;;;13.80;99.90;;;;;;7389079;19;20222;-86
2023/12/29 12:45:09;;;;;;;21.15;4.25;;;13.80;99.90;;;;;;7388817;19;20011;-83
2023/12/29 12:47:50;;;;;;;14.45;2.83;;;14.00;99.90;;;;;;7390550;19;20058;-82
2023/12/29 12:50:21;;;;;;;;;;;14.00;99.90;;;;;;7388277;19;20028;-81
2023/12/29 12:52:52;;;;;;;9.07;1.80;;;14.20;99.90;;;;;;7386125;19;19922;-82
2023/12/29 12:55:22;;;;;;;13.23;2.40;;;14.20;99.90;;;;;;7413658;19;20293;-82
2023/12/29 12:58:16;;;;;;;;;;;;;;;;;;;;;
2023/12/29 13:00:59;;;;;;;18.48;2.53;;;14.00;99.90;;;;;;7390044;19;20006;-82
2023/12/29 13:03:52;;;;;;;14.82;2.88;;;13.90;99.90;;;;;;7385818;19;20020;-83
2023/12/29 13:06:27;;;;;;;16.67;2.92;;;13.80;99.90;;;;;;7384972;19;20032;-82
2023/12/29 13:09:09;;;;;;;;;;;;;;;;;;;;;
2023/12/29 13:11:40;;;;;;;13.50;2.35;;;13.80;99.90;;;;;;7387333;19;20023;-81
2023/12/29 13:14:09;;;;;;;12.15;2.65;;;13.80;99.90;;;;;;7386440;19;19999;-81
2023/12/29 13:16:50;;;;;;;12.38;2.40;;;14.00;99.90;;;;;;7416143;19;20010;-83
2023/12/29 13:19:27;;;;;;;15.35;2.85;;;14.10;99.90;;;;;;7390422;19;20014;-83
2023/12/29 13:22:02;;;;;;;23.15;3.15;;;14.10;99.90;;;;;;7384739;19;20013;-80